sensor_id;sensor_type;location;lat;lon;timestamp;pressure;altitude;pressure_sealevel;temperature;humidity
44441;BME280;30146;52.268;20.944;2023-02-23T00:02:18;100873.64;;;-0.00;53.04
44441;BME280;30146;52.268;20.944;2023-02-23T00:04:46;100879.94;;;-0.03;52.94
44441;BME280;30146;52.268;20.944;2023-02-23T00:07:14;100877.41;;;-0.06;52.78
44441;BME280;30146;52.268;20.944;2023-02-23T00:09:46;100871.92;;;-0.09;52.96
44441;BME280;30146;52.268;20.944;2023-02-23T00:12:14;100869.35;;;-0.11;53.00
44441;BME280;30146;52.268;20.944;2023-02-23T00:14:44;100867.75;;;-0.12;53.13
44441;BME280;30146;52.268;20.944;2023-02-23T00:17:12;100869.27;;;-0.16;52.75
44441;BME280;30146;52.268;20.944;2023-02-23T00:19:46;100866.80;;;-0.23;52.78
44441;BME280;30146;52.268;20.944;2023-02-23T00:22:15;100867.75;;;-0.29;52.73
44441;BME280;30146;52.268;20.944;2023-02-23T00:24:44;100864.45;;;-0.35;52.85
44441;BME280;30146;52.268;20.944;2023-02-23T00:27:14;100859.16;;;-0.41;52.83
44441;BME280;30146;52.268;20.944;2023-02-23T00:29:45;100858.23;;;-0.43;52.90
44441;BME280;30146;52.268;20.944;2023-02-23T00:32:16;100858.98;;;-0.41;53.32
44441;BME280;30146;52.268;20.944;2023-02-23T00:34:46;100855.46;;;-0.41;53.39
44441;BME280;30146;52.268;20.944;2023-02-23T00:37:16;100852.54;;;-0.38;53.44
44441;BME280;30146;52.268;20.944;2023-02-23T00:39:45;100850.77;;;-0.36;53.49
44441;BME280;30146;52.268;20.944;2023-02-23T00:42:17;100845.30;;;-0.35;53.45
44441;BME280;30146;52.268;20.944;2023-02-23T00:44:49;100849.41;;;-0.33;53.36
44441;BME280;30146;52.268;20.944;2023-02-23T00:47:18;100845.40;;;-0.32;53.59
44441;BME280;30146;52.268;20.944;2023-02-23T00:49:50;100839.30;;;-0.33;53.29
44441;BME280;30146;52.268;20.944;2023-02-23T00:52:26;100837.78;;;-0.34;53.50
44441;BME280;30146;52.268;20.944;2023-02-23T00:54:55;100839.33;;;-0.33;53.69
44441;BME280;30146;52.268;20.944;2023-02-23T00:57:25;100835.79;;;-0.33;53.68
44441;BME280;30146;52.268;20.944;2023-02-23T01:00:01;100833.95;;;-0.33;53.73
44441;BME280;30146;52.268;20.944;2023-02-23T01:02:40;100830.23;;;-0.30;53.76
44441;BME280;30146;52.268;20.944;2023-02-23T01:05:11;100826.46;;;-0.27;53.87
44441;BME280;30146;52.268;20.944;2023-02-23T01:07:40;100823.77;;;-0.28;53.86
44441;BME280;30146;52.268;20.944;2023-02-23T01:10:10;100825.08;;;-0.29;53.88
44441;BME280;30146;52.268;20.944;2023-02-23T01:12:47;100827.88;;;-0.30;53.69
44441;BME280;30146;52.268;20.944;2023-02-23T01:15:18;100827.41;;;-0.29;53.82
44441;BME280;30146;52.268;20.944;2023-02-23T01:17:47;100824.67;;;-0.30;53.76
44441;BME280;30146;52.268;20.944;2023-02-23T01:20:17;100817.20;;;-0.32;53.86
44441;BME280;30146;52.268;20.944;2023-02-23T01:22:48;100823.41;;;-0.32;54.07
44441;BME280;30146;52.268;20.944;2023-02-23T01:25:17;100825.14;;;-0.35;53.84
44441;BME280;30146;52.268;20.944;2023-02-23T01:27:46;100821.45;;;-0.35;53.98
44441;BME280;30146;52.268;20.944;2023-02-23T01:32:44;100818.82;;;-0.37;53.91
44441;BME280;30146;52.268;20.944;2023-02-23T01:35:13;100820.99;;;-0.38;53.94
44441;BME280;30146;52.268;20.944;2023-02-23T01:37:43;100818.11;;;-0.38;54.20
44441;BME280;30146;52.268;20.944;2023-02-23T01:40:15;100818.55;;;-0.40;54.06
44441;BME280;30146;52.268;20.944;2023-02-23T01:42:57;100817.61;;;-0.42;53.99
44441;BME280;30146;52.268;20.944;2023-02-23T01:45:31;100818.09;;;-0.43;54.18
44441;BME280;30146;52.268;20.944;2023-02-23T01:48:05;100816.77;;;-0.46;54.06
44441;BME280;30146;52.268;20.944;2023-02-23T01:50:41;100814.98;;;-0.49;54.03
44441;BME280;30146;52.268;20.944;2023-02-23T01:53:13;100809.45;;;-0.52;54.24
44441;BME280;30146;52.268;20.944;2023-02-23T01:55:43;100812.24;;;-0.54;54.27
44441;BME280;30146;52.268;20.944;2023-02-23T01:58:15;100811.01;;;-0.55;54.47
44441;BME280;30146;52.268;20.944;2023-02-23T02:00:49;100804.86;;;-0.57;54.45
44441;BME280;30146;52.268;20.944;2023-02-23T02:03:25;100803.02;;;-0.58;54.56
44441;BME280;30146;52.268;20.944;2023-02-23T02:05:55;100798.29;;;-0.58;54.74
44441;BME280;30146;52.268;20.944;2023-02-23T02:11:28;100798.98;;;-0.58;54.88
44441;BME280;30146;52.268;20.944;2023-02-23T02:14:07;100800.92;;;-0.60;54.99
44441;BME280;30146;52.268;20.944;2023-02-23T02:16:49;100799.63;;;-0.62;55.13
44441;BME280;30146;52.268;20.944;2023-02-23T02:19:54;100796.66;;;-0.65;55.20
44441;BME280;30146;52.268;20.944;2023-02-23T02:22:53;100796.98;;;-0.65;55.60
44441;BME280;30146;52.268;20.944;2023-02-23T02:25:36;100793.51;;;-0.68;55.77
44441;BME280;30146;52.268;20.944;2023-02-23T02:28:45;100796.59;;;-0.67;55.57
44441;BME280;30146;52.268;20.944;2023-02-23T02:31:49;100791.64;;;-0.68;55.99
44441;BME280;30146;52.268;20.944;2023-02-23T02:34:51;100791.48;;;-0.68;55.90
44441;BME280;30146;52.268;20.944;2023-02-23T02:37:46;100792.75;;;-0.70;56.11
44441;BME280;30146;52.268;20.944;2023-02-23T02:40:27;100790.45;;;-0.73;56.08
44441;BME280;30146;52.268;20.944;2023-02-23T02:43:06;100789.66;;;-0.75;56.23
44441;BME280;30146;52.268;20.944;2023-02-23T02:45:46;100788.55;;;-0.78;56.37
44441;BME280;30146;52.268;20.944;2023-02-23T02:48:27;100788.00;;;-0.79;56.60
44441;BME280;30146;52.268;20.944;2023-02-23T02:51:04;100785.11;;;-0.80;56.90
44441;BME280;30146;52.268;20.944;2023-02-23T02:53:40;100789.48;;;-0.80;56.88
44441;BME280;30146;52.268;20.944;2023-02-23T02:56:14;100791.33;;;-0.76;57.16
44441;BME280;30146;52.268;20.944;2023-02-23T02:58:47;100790.70;;;-0.71;57.02
44441;BME280;30146;52.268;20.944;2023-02-23T03:01:17;100790.70;;;-0.67;57.28
44441;BME280;30146;52.268;20.944;2023-02-23T03:04:19;100794.59;;;-0.62;57.44
44441;BME280;30146;52.268;20.944;2023-02-23T03:07:12;100792.27;;;-0.58;57.29
44441;BME280;30146;52.268;20.944;2023-02-23T03:10:08;100789.70;;;-0.55;57.52
44441;BME280;30146;52.268;20.944;2023-02-23T03:13:08;100785.77;;;-0.52;57.46
44441;BME280;30146;52.268;20.944;2023-02-23T03:16:07;100785.47;;;-0.51;57.67
44441;BME280;30146;52.268;20.944;2023-02-23T03:19:06;100787.27;;;-0.52;57.80
44441;BME280;30146;52.268;20.944;2023-02-23T03:22:03;100789.83;;;-0.52;57.86
44441;BME280;30146;52.268;20.944;2023-02-23T03:24:56;100788.98;;;-0.52;57.95
44441;BME280;30146;52.268;20.944;2023-02-23T03:27:47;100789.33;;;-0.51;58.17
44441;BME280;30146;52.268;20.944;2023-02-23T03:30:44;100788.06;;;-0.53;58.07
44441;BME280;30146;52.268;20.944;2023-02-23T03:33:39;100789.22;;;-0.58;58.26
44441;BME280;30146;52.268;20.944;2023-02-23T03:36:32;100790.16;;;-0.60;58.47
44441;BME280;30146;52.268;20.944;2023-02-23T03:39:25;100791.56;;;-0.62;58.47
44441;BME280;30146;52.268;20.944;2023-02-23T03:42:18;100787.93;;;-0.65;58.70
44441;BME280;30146;52.268;20.944;2023-02-23T03:45:10;100793.98;;;-0.64;58.91
44441;BME280;30146;52.268;20.944;2023-02-23T03:48:03;100796.13;;;-0.66;58.94
44441;BME280;30146;52.268;20.944;2023-02-23T03:50:53;100793.92;;;-0.66;59.14
44441;BME280;30146;52.268;20.944;2023-02-23T03:53:43;100794.88;;;-0.64;59.20
44441;BME280;30146;52.268;20.944;2023-02-23T03:56:36;100794.29;;;-0.62;59.45
44441;BME280;30146;52.268;20.944;2023-02-23T03:59:27;100793.66;;;-0.56;59.46
44441;BME280;30146;52.268;20.944;2023-02-23T04:02:17;100794.75;;;-0.51;59.88
44441;BME280;30146;52.268;20.944;2023-02-23T04:05:08;100795.01;;;-0.44;59.88
44441;BME280;30146;52.268;20.944;2023-02-23T04:07:58;100792.82;;;-0.37;60.09
44441;BME280;30146;52.268;20.944;2023-02-23T04:10:50;100799.30;;;-0.30;60.02
44441;BME280;30146;52.268;20.944;2023-02-23T04:13:40;100801.40;;;-0.24;59.79
44441;BME280;30146;52.268;20.944;2023-02-23T04:16:10;100800.45;;;-0.23;59.82
44441;BME280;30146;52.268;20.944;2023-02-23T04:18:39;100798.23;;;-0.19;59.99
44441;BME280;30146;52.268;20.944;2023-02-23T04:21:07;100797.70;;;-0.16;59.98
44441;BME280;30146;52.268;20.944;2023-02-23T04:23:37;100797.27;;;-0.14;60.09
44441;BME280;30146;52.268;20.944;2023-02-23T04:26:07;100797.85;;;-0.12;60.11
44441;BME280;30146;52.268;20.944;2023-02-23T04:28:35;100796.60;;;-0.10;60.07
44441;BME280;30146;52.268;20.944;2023-02-23T04:31:04;100790.44;;;-0.09;60.12
44441;BME280;30146;52.268;20.944;2023-02-23T04:33:32;100787.56;;;-0.09;60.11
44441;BME280;30146;52.268;20.944;2023-02-23T04:36:00;100785.40;;;-0.09;60.25
44441;BME280;30146;52.268;20.944;2023-02-23T04:38:28;100782.53;;;-0.05;60.26
44441;BME280;30146;52.268;20.944;2023-02-23T04:40:56;100780.45;;;-0.02;60.33
44441;BME280;30146;52.268;20.944;2023-02-23T04:43:24;100781.03;;;-0.01;60.37
44441;BME280;30146;52.268;20.944;2023-02-23T04:45:52;100779.92;;;0.01;60.52
44441;BME280;30146;52.268;20.944;2023-02-23T04:48:20;100777.36;;;0.01;60.46
44441;BME280;30146;52.268;20.944;2023-02-23T04:50:52;100777.95;;;0.03;60.49
44441;BME280;30146;52.268;20.944;2023-02-23T04:53:21;100777.02;;;0.04;60.68
44441;BME280;30146;52.268;20.944;2023-02-23T04:55:49;100782.10;;;0.06;60.60
44441;BME280;30146;52.268;20.944;2023-02-23T04:58:18;100776.66;;;0.04;60.47
44441;BME280;30146;52.268;20.944;2023-02-23T05:00:46;100781.33;;;0.03;60.63
44441;BME280;30146;52.268;20.944;2023-02-23T05:03:14;100777.34;;;0.04;60.66
44441;BME280;30146;52.268;20.944;2023-02-23T05:05:44;100773.41;;;0.03;60.73
44441;BME280;30146;52.268;20.944;2023-02-23T05:08:12;100779.71;;;0.05;60.92
44441;BME280;30146;52.268;20.944;2023-02-23T05:10:40;100781.40;;;0.05;60.62
44441;BME280;30146;52.268;20.944;2023-02-23T05:13:08;100780.45;;;0.02;60.70
44441;BME280;30146;52.268;20.944;2023-02-23T05:15:37;100776.81;;;-0.01;60.61
44441;BME280;30146;52.268;20.944;2023-02-23T05:18:05;100772.09;;;-0.01;60.83
44441;BME280;30146;52.268;20.944;2023-02-23T05:20:36;100770.81;;;0.00;60.92
44441;BME280;30146;52.268;20.944;2023-02-23T05:23:04;100774.05;;;0.01;60.89
44441;BME280;30146;52.268;20.944;2023-02-23T05:25:33;100768.27;;;0.00;60.98
44441;BME280;30146;52.268;20.944;2023-02-23T05:28:02;100772.20;;;0.02;60.95
44441;BME280;30146;52.268;20.944;2023-02-23T05:30:30;100767.08;;;0.04;61.12
44441;BME280;30146;52.268;20.944;2023-02-23T05:33:00;100770.14;;;0.09;61.33
44441;BME280;30146;52.268;20.944;2023-02-23T05:35:30;100766.80;;;0.10;61.21
44441;BME280;30146;52.268;20.944;2023-02-23T05:37:58;100770.96;;;0.08;60.97
44441;BME280;30146;52.268;20.944;2023-02-23T05:40:27;100769.98;;;0.05;61.02
44441;BME280;30146;52.268;20.944;2023-02-23T05:42:58;100772.70;;;0.02;60.92
44441;BME280;30146;52.268;20.944;2023-02-23T05:45:27;100767.17;;;-0.07;61.01
44441;BME280;30146;52.268;20.944;2023-02-23T05:47:57;100768.41;;;-0.09;61.12
44441;BME280;30146;52.268;20.944;2023-02-23T05:50:25;100773.03;;;-0.07;61.43
44441;BME280;30146;52.268;20.944;2023-02-23T05:52:53;100773.65;;;-0.05;61.64
44441;BME280;30146;52.268;20.944;2023-02-23T05:55:22;100776.17;;;-0.04;61.48
44441;BME280;30146;52.268;20.944;2023-02-23T05:57:51;100773.86;;;-0.03;61.41
44441;BME280;30146;52.268;20.944;2023-02-23T06:00:20;100778.52;;;-0.01;61.60
44441;BME280;30146;52.268;20.944;2023-02-23T06:02:48;100781.26;;;0.01;61.56
44441;BME280;30146;52.268;20.944;2023-02-23T06:05:19;100777.98;;;0.03;61.68
44441;BME280;30146;52.268;20.944;2023-02-23T06:07:47;100781.23;;;0.05;61.36
44441;BME280;30146;52.268;20.944;2023-02-23T06:10:15;100779.80;;;0.07;61.67
44441;BME280;30146;52.268;20.944;2023-02-23T06:12:43;100778.91;;;0.05;61.58
44441;BME280;30146;52.268;20.944;2023-02-23T06:15:11;100781.33;;;0.07;61.59
44441;BME280;30146;52.268;20.944;2023-02-23T06:17:40;100786.66;;;0.10;61.43
44441;BME280;30146;52.268;20.944;2023-02-23T06:20:10;100783.32;;;0.11;61.49
44441;BME280;30146;52.268;20.944;2023-02-23T06:22:39;100788.98;;;0.14;61.57
44441;BME280;30146;52.268;20.944;2023-02-23T06:25:09;100792.87;;;0.14;61.50
44441;BME280;30146;52.268;20.944;2023-02-23T06:27:39;100791.03;;;0.14;61.44
44441;BME280;30146;52.268;20.944;2023-02-23T06:30:11;100786.67;;;0.15;61.50
44441;BME280;30146;52.268;20.944;2023-02-23T06:32:41;100786.45;;;0.17;61.44
44441;BME280;30146;52.268;20.944;2023-02-23T06:35:12;100788.73;;;0.24;61.55
44441;BME280;30146;52.268;20.944;2023-02-23T06:37:41;100791.26;;;0.33;61.61
44441;BME280;30146;52.268;20.944;2023-02-23T06:40:11;100788.19;;;0.45;61.82
44441;BME280;30146;52.268;20.944;2023-02-23T06:42:39;100787.79;;;0.56;61.75
44441;BME280;30146;52.268;20.944;2023-02-23T06:45:09;100795.58;;;0.71;61.79
44441;BME280;30146;52.268;20.944;2023-02-23T06:47:37;100789.06;;;0.90;61.58
44441;BME280;30146;52.268;20.944;2023-02-23T06:50:08;100793.04;;;1.16;61.82
44441;BME280;30146;52.268;20.944;2023-02-23T06:52:37;100791.75;;;1.37;61.69
44441;BME280;30146;52.268;20.944;2023-02-23T06:55:08;100790.23;;;1.62;61.46
44441;BME280;30146;52.268;20.944;2023-02-23T06:57:40;100791.25;;;1.87;61.14
44441;BME280;30146;52.268;20.944;2023-02-23T07:00:11;100788.13;;;2.00;60.86
44441;BME280;30146;52.268;20.944;2023-02-23T07:02:41;100788.83;;;2.11;60.35
44441;BME280;30146;52.268;20.944;2023-02-23T07:05:11;100792.00;;;2.16;59.93
44441;BME280;30146;52.268;20.944;2023-02-23T07:07:39;100789.82;;;2.17;59.56
44441;BME280;30146;52.268;20.944;2023-02-23T07:10:10;100788.38;;;2.19;59.48
44441;BME280;30146;52.268;20.944;2023-02-23T07:12:38;100792.82;;;2.26;59.48
44441;BME280;30146;52.268;20.944;2023-02-23T07:15:08;100794.15;;;2.30;59.21
44441;BME280;30146;52.268;20.944;2023-02-23T07:17:36;100788.30;;;2.37;59.16
44441;BME280;30146;52.268;20.944;2023-02-23T07:20:06;100787.39;;;2.63;59.68
44441;BME280;30146;52.268;20.944;2023-02-23T07:22:35;100787.23;;;2.93;59.55
44441;BME280;30146;52.268;20.944;2023-02-23T07:25:08;100784.45;;;3.20;59.34
44441;BME280;30146;52.268;20.944;2023-02-23T07:27:37;100782.15;;;3.29;58.29
44441;BME280;30146;52.268;20.944;2023-02-23T07:30:08;100776.97;;;3.30;58.12
44441;BME280;30146;52.268;20.944;2023-02-23T07:32:37;100780.80;;;3.48;58.44
44441;BME280;30146;52.268;20.944;2023-02-23T07:35:07;100779.13;;;3.55;57.86
44441;BME280;30146;52.268;20.944;2023-02-23T07:37:35;100774.84;;;3.52;57.64
44441;BME280;30146;52.268;20.944;2023-02-23T07:40:04;100775.88;;;3.53;57.54
44441;BME280;30146;52.268;20.944;2023-02-23T07:42:32;100772.38;;;3.49;57.00
44441;BME280;30146;52.268;20.944;2023-02-23T07:45:00;100769.09;;;3.46;56.84
44441;BME280;30146;52.268;20.944;2023-02-23T07:47:29;100770.56;;;3.44;56.83
44441;BME280;30146;52.268;20.944;2023-02-23T07:49:58;100769.17;;;3.43;56.65
44441;BME280;30146;52.268;20.944;2023-02-23T07:52:27;100761.52;;;3.47;57.18
44441;BME280;30146;52.268;20.944;2023-02-23T07:54:55;100755.66;;;3.90;57.81
44441;BME280;30146;52.268;20.944;2023-02-23T07:57:24;100750.84;;;4.15;56.81
44441;BME280;30146;52.268;20.944;2023-02-23T07:59:53;100749.44;;;4.20;56.41
44441;BME280;30146;52.268;20.944;2023-02-23T08:02:21;100742.38;;;4.23;56.49
44441;BME280;30146;52.268;20.944;2023-02-23T08:04:50;100743.13;;;4.33;56.32
44441;BME280;30146;52.268;20.944;2023-02-23T08:07:20;100736.53;;;4.73;56.82
44441;BME280;30146;52.268;20.944;2023-02-23T08:09:49;100731.43;;;5.34;56.88
44441;BME280;30146;52.268;20.944;2023-02-23T08:12:17;100734.94;;;5.69;56.14
44441;BME280;30146;52.268;20.944;2023-02-23T08:14:45;100729.52;;;5.99;55.44
44441;BME280;30146;52.268;20.944;2023-02-23T08:17:13;100724.98;;;6.25;54.97
44441;BME280;30146;52.268;20.944;2023-02-23T08:19:41;100721.57;;;6.50;54.49
44441;BME280;30146;52.268;20.944;2023-02-23T08:22:10;100722.91;;;6.89;54.12
44441;BME280;30146;52.268;20.944;2023-02-23T08:24:41;100711.84;;;7.35;53.44
44441;BME280;30146;52.268;20.944;2023-02-23T08:27:09;100713.59;;;7.79;53.21
44441;BME280;30146;52.268;20.944;2023-02-23T08:29:37;100711.02;;;8.03;52.10
44441;BME280;30146;52.268;20.944;2023-02-23T08:32:06;100711.46;;;8.16;51.19
44441;BME280;30146;52.268;20.944;2023-02-23T08:34:38;100710.45;;;8.15;50.78
44441;BME280;30146;52.268;20.944;2023-02-23T08:37:09;100704.49;;;8.18;50.81
44441;BME280;30146;52.268;20.944;2023-02-23T08:39:37;100706.66;;;8.10;50.24
44441;BME280;30146;52.268;20.944;2023-02-23T08:42:06;100705.18;;;7.92;49.94
44441;BME280;30146;52.268;20.944;2023-02-23T08:44:36;100699.62;;;7.78;49.93
44441;BME280;30146;52.268;20.944;2023-02-23T08:47:04;100699.73;;;7.70;49.82
44441;BME280;30146;52.268;20.944;2023-02-23T08:49:32;100700.73;;;7.67;49.87
44441;BME280;30146;52.268;20.944;2023-02-23T08:52:00;100700.59;;;7.72;49.96
44441;BME280;30146;52.268;20.944;2023-02-23T08:54:29;100697.11;;;7.81;50.17
44441;BME280;30146;52.268;20.944;2023-02-23T08:56:58;100693.73;;;7.88;50.10
44441;BME280;30146;52.268;20.944;2023-02-23T08:59:26;100693.05;;;7.86;49.92
44441;BME280;30146;52.268;20.944;2023-02-23T09:01:54;100689.79;;;7.82;49.66
44441;BME280;30146;52.268;20.944;2023-02-23T09:04:23;100688.60;;;7.82;49.94
44441;BME280;30146;52.268;20.944;2023-02-23T09:06:52;100687.59;;;7.84;49.88
44441;BME280;30146;52.268;20.944;2023-02-23T09:09:21;100686.23;;;8.11;50.40
44441;BME280;30146;52.268;20.944;2023-02-23T09:11:49;100687.85;;;8.54;50.38
44441;BME280;30146;52.268;20.944;2023-02-23T09:14:20;100684.27;;;9.07;50.08
44441;BME280;30146;52.268;20.944;2023-02-23T09:16:48;100685.69;;;9.53;48.78
44441;BME280;30146;52.268;20.944;2023-02-23T09:19:16;100677.48;;;9.88;48.32
44441;BME280;30146;52.268;20.944;2023-02-23T09:21:45;100677.41;;;10.34;48.41
44441;BME280;30146;52.268;20.944;2023-02-23T09:24:13;100670.92;;;10.78;47.90
44441;BME280;30146;52.268;20.944;2023-02-23T09:26:41;100666.27;;;11.13;47.17
44441;BME280;30146;52.268;20.944;2023-02-23T09:29:12;100656.31;;;11.42;46.97
44441;BME280;30146;52.268;20.944;2023-02-23T09:31:41;100656.41;;;11.72;46.73
44441;BME280;30146;52.268;20.944;2023-02-23T09:34:10;100650.46;;;11.83;46.02
44441;BME280;30146;52.268;20.944;2023-02-23T09:36:39;100648.89;;;11.86;45.84
44441;BME280;30146;52.268;20.944;2023-02-23T09:39:07;100646.60;;;11.77;45.47
44441;BME280;30146;52.268;20.944;2023-02-23T09:41:47;100647.28;;;11.58;45.58
44441;BME280;30146;52.268;20.944;2023-02-23T09:44:24;100636.73;;;11.30;45.65
44441;BME280;30146;52.268;20.944;2023-02-23T09:47:06;100638.48;;;10.97;45.84
44441;BME280;30146;52.268;20.944;2023-02-23T09:49:41;100630.95;;;10.70;45.88
44441;BME280;30146;52.268;20.944;2023-02-23T09:52:16;100638.94;;;10.43;45.64
44441;BME280;30146;52.268;20.944;2023-02-23T09:54:46;100636.80;;;10.10;45.86
44441;BME280;30146;52.268;20.944;2023-02-23T09:57:18;100642.48;;;9.89;45.93
44441;BME280;30146;52.268;20.944;2023-02-23T09:59:48;100642.35;;;9.60;45.73
44441;BME280;30146;52.268;20.944;2023-02-23T10:02:22;100634.68;;;9.29;45.53
44441;BME280;30146;52.268;20.944;2023-02-23T10:04:56;100634.98;;;8.96;45.81
44441;BME280;30146;52.268;20.944;2023-02-23T10:07:35;100633.39;;;8.71;45.99
44441;BME280;30146;52.268;20.944;2023-02-23T10:10:20;100623.78;;;8.51;46.32
44441;BME280;30146;52.268;20.944;2023-02-23T10:13:00;100618.40;;;8.32;46.67
44441;BME280;30146;52.268;20.944;2023-02-23T10:15:36;100623.30;;;8.24;46.99
44441;BME280;30146;52.268;20.944;2023-02-23T10:18:17;100629.73;;;8.14;46.78
44441;BME280;30146;52.268;20.944;2023-02-23T10:20:55;100622.36;;;8.04;47.05
44441;BME280;30146;52.268;20.944;2023-02-23T10:23:28;100618.22;;;7.96;47.18
44441;BME280;30146;52.268;20.944;2023-02-23T10:25:59;100613.73;;;7.85;47.25
44441;BME280;30146;52.268;20.944;2023-02-23T10:28:33;100610.30;;;7.79;47.45
44441;BME280;30146;52.268;20.944;2023-02-23T10:31:08;100603.95;;;7.71;47.46
44441;BME280;30146;52.268;20.944;2023-02-23T10:33:47;100597.64;;;7.69;48.07
44441;BME280;30146;52.268;20.944;2023-02-23T10:36:23;100594.13;;;7.79;48.23
44441;BME280;30146;52.268;20.944;2023-02-23T10:38:55;100592.60;;;7.78;47.81
44441;BME280;30146;52.268;20.944;2023-02-23T10:41:23;100588.96;;;7.71;47.61
44441;BME280;30146;52.268;20.944;2023-02-23T10:43:51;100582.11;;;7.63;47.82
44441;BME280;30146;52.268;20.944;2023-02-23T10:46:22;100579.58;;;7.65;48.05
44441;BME280;30146;52.268;20.944;2023-02-23T10:48:54;100577.22;;;7.69;48.21
44441;BME280;30146;52.268;20.944;2023-02-23T10:51:28;100576.35;;;7.68;48.29
44441;BME280;30146;52.268;20.944;2023-02-23T10:54:37;100571.05;;;7.63;48.07
44441;BME280;30146;52.268;20.944;2023-02-23T10:57:07;100559.45;;;7.56;48.21
44441;BME280;30146;52.268;20.944;2023-02-23T10:59:35;100561.47;;;7.53;48.34
44441;BME280;30146;52.268;20.944;2023-02-23T11:02:23;100558.21;;;7.49;48.27
44441;BME280;30146;52.268;20.944;2023-02-23T11:04:55;100554.56;;;7.39;48.34
44441;BME280;30146;52.268;20.944;2023-02-23T11:07:26;100548.02;;;7.28;48.14
44441;BME280;30146;52.268;20.944;2023-02-23T11:09:56;100543.20;;;7.20;48.49
44441;BME280;30146;52.268;20.944;2023-02-23T11:12:28;100547.27;;;7.16;48.51
44441;BME280;30146;52.268;20.944;2023-02-23T11:15:26;100533.27;;;7.09;48.73
44441;BME280;30146;52.268;20.944;2023-02-23T11:18:19;100530.15;;;7.02;48.81
44441;BME280;30146;52.268;20.944;2023-02-23T11:20:49;100526.33;;;6.93;48.77
44441;BME280;30146;52.268;20.944;2023-02-23T11:23:22;100523.48;;;6.78;48.48
44441;BME280;30146;52.268;20.944;2023-02-23T11:25:57;100515.54;;;6.62;48.83
44441;BME280;30146;52.268;20.944;2023-02-23T11:28:30;100506.27;;;6.52;49.18
44441;BME280;30146;52.268;20.944;2023-02-23T11:31:02;100506.90;;;6.48;49.50
44441;BME280;30146;52.268;20.944;2023-02-23T11:33:32;100502.83;;;6.48;49.84
44441;BME280;30146;52.268;20.944;2023-02-23T11:36:17;100502.86;;;6.50;49.86
44441;BME280;30146;52.268;20.944;2023-02-23T11:39:03;100498.73;;;6.46;49.66
44441;BME280;30146;52.268;20.944;2023-02-23T11:41:33;100497.38;;;6.47;49.99
44441;BME280;30146;52.268;20.944;2023-02-23T11:44:03;100490.44;;;6.49;49.95
44441;BME280;30146;52.268;20.944;2023-02-23T11:46:36;100488.62;;;6.53;50.07
44441;BME280;30146;52.268;20.944;2023-02-23T11:49:07;100486.45;;;6.59;50.07
44441;BME280;30146;52.268;20.944;2023-02-23T11:51:40;100480.18;;;6.60;50.05
44441;BME280;30146;52.268;20.944;2023-02-23T11:54:20;100481.91;;;6.63;50.07
44441;BME280;30146;52.268;20.944;2023-02-23T11:56:57;100476.00;;;6.66;50.14
44441;BME280;30146;52.268;20.944;2023-02-23T11:59:30;100474.66;;;6.69;50.21
44441;BME280;30146;52.268;20.944;2023-02-23T12:02:05;100470.77;;;6.72;50.22
44441;BME280;30146;52.268;20.944;2023-02-23T12:04:46;100468.05;;;6.71;50.05
44441;BME280;30146;52.268;20.944;2023-02-23T12:07:27;100460.84;;;6.63;49.89
44441;BME280;30146;52.268;20.944;2023-02-23T12:10:02;100455.88;;;6.59;50.03
44441;BME280;30146;52.268;20.944;2023-02-23T12:12:39;100449.41;;;6.56;50.08
44441;BME280;30146;52.268;20.944;2023-02-23T12:15:21;100444.28;;;6.52;50.06
44441;BME280;30146;52.268;20.944;2023-02-23T12:17:56;100444.63;;;6.52;50.37
44441;BME280;30146;52.268;20.944;2023-02-23T12:20:29;100440.88;;;6.51;50.19
44441;BME280;30146;52.268;20.944;2023-02-23T12:23:05;100438.16;;;6.51;50.35
44441;BME280;30146;52.268;20.944;2023-02-23T12:25:41;100435.95;;;6.52;50.30
44441;BME280;30146;52.268;20.944;2023-02-23T12:28:19;100433.54;;;6.47;50.04
44441;BME280;30146;52.268;20.944;2023-02-23T12:30:57;100423.65;;;6.43;50.26
44441;BME280;30146;52.268;20.944;2023-02-23T12:33:32;100422.95;;;6.40;50.32
44441;BME280;30146;52.268;20.944;2023-02-23T12:36:06;100417.63;;;6.33;50.35
44441;BME280;30146;52.268;20.944;2023-02-23T12:38:46;100413.72;;;6.32;50.49
44441;BME280;30146;52.268;20.944;2023-02-23T12:41:20;100411.48;;;6.30;50.48
44441;BME280;30146;52.268;20.944;2023-02-23T12:43:58;100407.72;;;6.27;50.43
44441;BME280;30146;52.268;20.944;2023-02-23T12:46:29;100402.05;;;6.21;50.49
44441;BME280;30146;52.268;20.944;2023-02-23T12:49:05;100396.95;;;6.19;50.64
44441;BME280;30146;52.268;20.944;2023-02-23T12:51:43;100391.63;;;6.13;50.62
44441;BME280;30146;52.268;20.944;2023-02-23T12:54:15;100389.92;;;6.11;50.83
44441;BME280;30146;52.268;20.944;2023-02-23T12:56:52;100389.10;;;6.14;51.14
44441;BME280;30146;52.268;20.944;2023-02-23T12:59:43;100389.13;;;6.17;51.16
44441;BME280;30146;52.268;20.944;2023-02-23T13:02:20;100383.16;;;6.14;50.80
44441;BME280;30146;52.268;20.944;2023-02-23T13:05:18;100381.92;;;6.09;50.88
44441;BME280;30146;52.268;20.944;2023-02-23T13:08:10;100375.59;;;6.03;50.93
44441;BME280;30146;52.268;20.944;2023-02-23T13:10:50;100374.39;;;6.02;51.25
44441;BME280;30146;52.268;20.944;2023-02-23T13:13:28;100367.96;;;6.04;51.36
44441;BME280;30146;52.268;20.944;2023-02-23T13:16:07;100367.27;;;6.02;51.15
44441;BME280;30146;52.268;20.944;2023-02-23T13:18:42;100359.77;;;5.99;51.15
44441;BME280;30146;52.268;20.944;2023-02-23T13:21:15;100355.67;;;5.96;51.19
44441;BME280;30146;52.268;20.944;2023-02-23T13:23:54;100355.83;;;5.96;51.27
44441;BME280;30146;52.268;20.944;2023-02-23T13:26:34;100357.41;;;6.00;51.58
44441;BME280;30146;52.268;20.944;2023-02-23T13:29:11;100347.39;;;6.00;51.55